createdAt,value
2024-03-03T00:02:49.221Z,6.2
2024-03-03T00:07:55.330Z,6.1
2024-03-03T00:13:01.425Z,5.7
2024-03-03T00:18:07.505Z,5.6
2024-03-03T00:23:13.620Z,5.4
2024-03-03T00:28:18.745Z,5.2
2024-03-03T00:33:24.815Z,5.2
2024-03-03T00:38:30.927Z,5.4
2024-03-03T00:43:37.052Z,5.6
2024-03-03T00:48:43.120Z,5.5
2024-03-03T00:53:49.221Z,5.3
2024-03-03T00:58:55.304Z,5.5
2024-03-03T01:04:01.408Z,5.4
2024-03-03T01:09:07.528Z,5.8
2024-03-03T01:14:13.596Z,5.7
2024-03-03T01:19:19.704Z,5.5
2024-03-03T01:24:25.805Z,5.5
2024-03-03T01:29:31.911Z,5.3
2024-03-03T01:34:37.026Z,5
2024-03-03T01:39:43.261Z,4.8
2024-03-03T01:44:49.224Z,4.6
2024-03-03T01:49:55.311Z,4.5
2024-03-03T01:55:01.415Z,4.4
2024-03-03T02:00:07.509Z,4.3
2024-03-03T02:05:13.618Z,4.1
2024-03-03T02:10:19.713Z,4
2024-03-03T02:15:25.790Z,3.9
2024-03-03T02:20:31.904Z,3.9
2024-03-03T02:25:38.013Z,3.8
2024-03-03T02:30:44.103Z,3.7
2024-03-03T02:35:50.184Z,3.5
2024-03-03T02:40:55.316Z,3.5
2024-03-03T02:46:01.406Z,3.4
2024-03-03T02:51:07.494Z,3.5
2024-03-03T02:56:13.675Z,3.8
2024-03-03T03:01:19.692Z,3.9
2024-03-03T03:06:25.813Z,4
2024-03-03T03:11:31.886Z,4.1
2024-03-03T03:16:37.996Z,4
2024-03-03T03:21:44.083Z,4
2024-03-03T03:26:50.180Z,3.7
2024-03-03T03:31:56.280Z,3.5
2024-03-03T03:37:02.374Z,3.5
2024-03-03T03:42:08.463Z,3.6
2024-03-03T03:47:13.650Z,3.6
2024-03-03T03:52:19.687Z,3.5
2024-03-03T03:57:25.771Z,3.3
2024-03-03T04:02:31.887Z,3.2
2024-03-03T04:07:38.161Z,2.9
2024-03-03T04:12:44.081Z,2.7
2024-03-03T04:17:50.164Z,2.7
2024-03-03T04:22:56.262Z,2.8
2024-03-03T04:28:02.379Z,3
2024-03-03T04:33:08.467Z,2.9
2024-03-03T04:38:14.563Z,2.7
2024-03-03T04:43:20.668Z,2.6
2024-03-03T04:48:26.752Z,2.4
2024-03-03T04:53:31.869Z,2.2
2024-03-03T04:58:37.969Z,2
2024-03-03T05:03:44.075Z,2.1
2024-03-03T05:08:50.152Z,2.3
2024-03-03T05:13:56.241Z,2.5
2024-03-03T05:19:02.373Z,2.6
2024-03-03T05:24:08.429Z,2.7
2024-03-03T05:29:14.532Z,2.7
2024-03-03T05:34:20.715Z,2.6
2024-03-03T05:39:26.700Z,2.7
2024-03-03T05:44:32.795Z,2.6
2024-03-03T05:49:38.899Z,2.5
2024-03-03T05:54:45.006Z,2.1
2024-03-03T05:59:50.122Z,2
2024-03-03T06:04:56.201Z,1.8
2024-03-03T06:10:02.288Z,1.8
2024-03-03T06:15:08.404Z,2.1
2024-03-03T06:20:14.637Z,2.1
2024-03-03T06:25:20.582Z,2.1
2024-03-03T06:30:26.670Z,2.3
2024-03-03T06:35:32.918Z,2.9
2024-03-03T06:40:38.870Z,2.9
2024-03-03T06:45:44.957Z,2.9
2024-03-03T06:50:51.060Z,2.8
2024-03-03T06:55:57.148Z,2.8
2024-03-03T07:01:03.302Z,3
2024-03-03T07:06:08.392Z,3.2
2024-03-03T07:11:14.451Z,3.4
2024-03-03T07:16:20.561Z,3.5
2024-03-03T07:21:26.660Z,3.7
2024-03-03T07:26:32.753Z,4
2024-03-03T07:31:38.862Z,4.2
2024-03-03T07:36:45.059Z,4.5
2024-03-03T07:41:51.056Z,4.7
2024-03-03T07:46:57.145Z,5.1
2024-03-03T07:52:03.242Z,5.5
2024-03-03T07:57:09.345Z,6
2024-03-03T08:02:15.451Z,6.4
2024-03-03T08:12:27.739Z,7.4
2024-03-03T08:17:32.743Z,7.9
2024-03-03T08:22:38.896Z,8.2
2024-03-03T08:27:44.940Z,8.6
2024-03-03T08:32:51.043Z,9
2024-03-03T08:37:57.125Z,9.5
2024-03-03T08:43:03.223Z,9.9
2024-03-03T08:48:09.324Z,10.3
2024-03-03T08:53:15.444Z,10.6
2024-03-03T08:58:21.509Z,10.9
2024-03-03T09:03:27.621Z,10.5
2024-03-03T09:08:33.685Z,10.6
2024-03-03T09:13:39.787Z,10.9
2024-03-03T09:18:45.889Z,11.4
2024-03-03T09:23:51.000Z,12.1
2024-03-03T09:28:57.080Z,12.6
2024-03-03T09:34:03.190Z,13.1
2024-03-03T09:39:09.272Z,14
2024-03-03T09:44:15.365Z,14.5
2024-03-03T09:49:21.455Z,14.9
2024-03-03T09:54:27.568Z,15.8
2024-03-03T09:59:33.664Z,16.3
2024-03-03T10:04:39.737Z,16.6
2024-03-03T10:09:45.835Z,16.4
2024-03-03T10:14:51.942Z,16
2024-03-03T10:19:58.030Z,17.3
2024-03-03T10:30:10.221Z,17.5
2024-03-03T10:35:15.331Z,17.3
2024-03-03T10:45:27.709Z,18.8
2024-03-03T10:50:33.617Z,20
2024-03-03T10:55:39.708Z,20.6
2024-03-03T11:00:45.868Z,20.7
2024-03-03T11:05:51.908Z,21
2024-03-03T11:10:57.982Z,20.8
2024-03-03T11:16:04.078Z,21.5
2024-03-03T11:21:10.214Z,20.4
2024-03-03T11:26:16.324Z,17.3
2024-03-03T11:31:22.407Z,16.1
2024-03-03T11:36:28.567Z,15.5
2024-03-03T11:41:33.578Z,15.1
2024-03-03T11:46:39.666Z,15.1
2024-03-03T11:51:45.761Z,15.2
2024-03-03T11:56:51.845Z,15.4
2024-03-03T12:01:57.936Z,15
2024-03-03T12:07:04.054Z,15.3
2024-03-03T12:12:10.136Z,15.1
2024-03-03T12:17:16.223Z,14.9
2024-03-03T12:22:22.326Z,15
2024-03-03T12:27:28.406Z,15.2
2024-03-03T12:32:34.518Z,15.5
2024-03-03T12:37:40.618Z,16.8
2024-03-03T12:42:46.704Z,16.7
2024-03-03T12:47:51.806Z,17.6
2024-03-03T12:52:57.922Z,17.5
2024-03-03T12:58:03.992Z,19.7
2024-03-03T13:03:10.091Z,20.7
2024-03-03T13:08:16.228Z,20.8
2024-03-03T13:13:22.292Z,20.6
2024-03-03T13:18:28.386Z,20.4
2024-03-03T13:23:34.467Z,18.9
2024-03-03T13:28:40.628Z,19.7
2024-03-03T13:33:46.659Z,19.1
2024-03-03T13:38:52.757Z,17.5
2024-03-03T13:43:58.848Z,18.8
2024-03-03T13:49:04.938Z,19.3
2024-03-03T13:54:10.053Z,19
2024-03-03T13:59:16.150Z,18.6
2024-03-03T14:04:22.250Z,19.8
2024-03-03T14:09:28.344Z,19.5
2024-03-03T14:14:34.428Z,19.2
2024-03-03T14:19:40.540Z,18
2024-03-03T14:24:46.623Z,16.9
2024-03-03T14:29:52.702Z,17.3
2024-03-03T14:34:58.815Z,19.2
2024-03-03T14:40:04.928Z,18.3
2024-03-03T14:45:11.089Z,18.3
2024-03-03T14:50:17.092Z,17.7
2024-03-03T14:55:23.196Z,18.7
2024-03-03T15:00:28.308Z,18.5
2024-03-03T15:05:34.397Z,19
2024-03-03T15:10:40.511Z,18.9
2024-03-03T15:15:46.576Z,18.5
2024-03-03T15:20:52.674Z,18.1
2024-03-03T15:25:58.856Z,18.2
2024-03-03T15:31:04.870Z,17.6
2024-03-03T15:36:10.974Z,17.8
2024-03-03T15:41:17.062Z,16.8
2024-03-03T15:46:23.179Z,15.9
2024-03-03T15:51:29.236Z,15
2024-03-03T15:56:35.344Z,14.6
2024-03-03T16:01:41.452Z,14.5
2024-03-03T16:06:46.549Z,14.3
2024-03-03T16:11:52.642Z,14.2
2024-03-03T16:16:58.735Z,14.5
2024-03-03T16:22:04.829Z,14
2024-03-03T16:27:09.954Z,13.5
2024-03-03T16:32:16.045Z,13.2
2024-03-03T16:37:22.135Z,12.9
2024-03-03T16:42:28.259Z,12.8
2024-03-03T16:47:34.316Z,12.4
2024-03-03T16:52:40.425Z,12.2
2024-03-03T16:57:46.505Z,12.1
2024-03-03T17:02:52.623Z,11.9
2024-03-03T17:07:58.728Z,11.8
2024-03-03T17:13:04.806Z,11.6
2024-03-03T17:18:10.888Z,11.5
2024-03-03T17:23:16.987Z,11.3
2024-03-03T17:28:23.074Z,11.2
2024-03-03T17:33:28.216Z,11.1
2024-03-03T17:38:34.301Z,11
2024-03-03T17:43:40.395Z,10.8
2024-03-03T17:48:46.482Z,10.6
2024-03-03T17:53:52.571Z,10.4
2024-03-03T17:58:58.670Z,10.4
2024-03-03T18:04:04.780Z,10.5
2024-03-03T18:09:10.866Z,10.3
2024-03-03T18:14:16.965Z,10.2
2024-03-03T18:19:23.063Z,10
2024-03-03T18:24:29.145Z,9.7
2024-03-03T18:29:35.261Z,9.5
2024-03-03T18:34:41.491Z,9.4
2024-03-03T18:39:46.456Z,9.5
2024-03-03T18:44:52.559Z,9.6
2024-03-03T18:49:58.655Z,9.5
2024-03-03T18:55:04.751Z,9.5
2024-03-03T19:00:10.856Z,9.4
2024-03-03T19:05:16.948Z,9.2
2024-03-03T19:10:23.037Z,9.1
2024-03-03T19:15:29.127Z,9
2024-03-03T19:20:35.224Z,8.7
2024-03-03T19:25:41.418Z,8.6
2024-03-03T19:30:47.434Z,8.4
2024-03-03T19:35:53.521Z,8.3
2024-03-03T19:40:59.602Z,8.5
2024-03-03T19:46:04.724Z,8.5
2024-03-03T19:51:10.823Z,8.4
2024-03-03T19:56:16.919Z,8.6
2024-03-03T20:01:22.996Z,8.6
2024-03-03T20:06:29.094Z,8.7
2024-03-03T20:11:35.204Z,8.7
2024-03-03T20:16:41.316Z,8.7
2024-03-03T20:21:47.394Z,8.5
2024-03-03T20:26:53.517Z,8.4
2024-03-03T20:31:59.578Z,8.2
2024-03-03T20:37:05.825Z,8.1
2024-03-03T20:42:11.796Z,8.1
2024-03-03T20:47:17.916Z,8
2024-03-03T20:52:22.992Z,8.1
2024-03-03T20:57:29.082Z,8.2
2024-03-03T21:02:35.183Z,8.1
2024-03-03T21:07:41.271Z,8.1
2024-03-03T21:12:47.363Z,8
2024-03-03T21:17:53.461Z,7.9
2024-03-03T21:22:59.575Z,7.7
2024-03-03T21:28:05.664Z,7.5
2024-03-03T21:33:11.734Z,7.4
2024-03-03T21:38:17.857Z,7.6
2024-03-03T21:43:23.949Z,7.5
2024-03-03T21:48:30.033Z,7.4
2024-03-03T21:53:36.138Z,7.3
2024-03-03T21:58:41.257Z,7.1
2024-03-03T22:03:47.363Z,7
2024-03-03T22:08:53.451Z,6.8
2024-03-03T22:13:59.550Z,6.5
2024-03-03T22:19:05.645Z,6.5
2024-03-03T22:24:11.746Z,6.6
2024-03-03T22:29:17.844Z,6.6
2024-03-03T22:34:23.922Z,6.6
2024-03-03T22:39:30.031Z,6.5
2024-03-03T22:44:36.123Z,6.3
2024-03-03T22:49:42.217Z,5.9
2024-03-03T22:54:48.320Z,5.6
2024-03-03T22:59:54.439Z,5.4
2024-03-03T23:04:59.539Z,5.1
2024-03-03T23:10:05.622Z,5.2
2024-03-03T23:15:11.714Z,5.1
2024-03-03T23:20:17.819Z,4.9
2024-03-03T23:25:23.920Z,4.7
2024-03-03T23:30:30.008Z,4.7
2024-03-03T23:35:36.105Z,4.5
2024-03-03T23:40:42.206Z,4.5
2024-03-03T23:45:48.297Z,4.5
2024-03-03T23:50:54.398Z,4.2
2024-03-03T23:56:00.572Z,4.1
